createdAt,value
2019-02-20T00:04:45.555Z,8.20
2019-02-20T00:07:46.918Z,8.20
2019-02-20T00:10:47.815Z,8.30
2019-02-20T00:13:48.521Z,8.40
2019-02-20T00:16:49.162Z,8.40
2019-02-20T00:19:50.134Z,8.20
2019-02-20T00:22:51.413Z,8.30
2019-02-20T00:25:52.252Z,8.30
2019-02-20T00:28:52.995Z,8.40
2019-02-20T00:31:53.893Z,8.30
2019-02-20T00:34:54.579Z,8.20
2019-02-20T00:37:56.140Z,8.20
2019-02-20T00:40:57.154Z,8.20
2019-02-20T00:43:59.597Z,8.20
2019-02-20T00:50:15.573Z,8.20
2019-02-20T00:53:18.578Z,8.10
2019-02-20T00:56:19.525Z,8.10
2019-02-20T00:59:20.731Z,8.00
2019-02-20T01:02:21.583Z,8.00
2019-02-20T01:05:22.394Z,8.10
2019-02-20T01:08:23.370Z,8.00
2019-02-20T01:11:24.565Z,8.00
2019-02-20T01:14:25.812Z,8.00
2019-02-20T01:17:26.857Z,7.70
2019-02-20T01:20:28.076Z,7.90
2019-02-20T01:23:29.268Z,8.00
2019-02-20T01:26:30.472Z,8.00
2019-02-20T01:29:31.175Z,8.00
2019-02-20T01:32:31.988Z,8.00
2019-02-20T01:35:33.189Z,8.00
2019-02-20T01:38:34.154Z,8.00
2019-02-20T01:41:35.246Z,8.10
2019-02-20T01:44:35.714Z,8.00
2019-02-20T01:47:36.646Z,8.00
2019-02-20T01:50:37.790Z,8.00
2019-02-20T01:53:38.970Z,7.90
2019-02-20T01:59:23.013Z,7.80
2019-02-20T02:02:23.713Z,7.80
2019-02-20T02:08:26.522Z,7.90
2019-02-20T02:11:34.768Z,7.90
2019-02-20T02:14:36.249Z,7.90
2019-02-20T02:17:37.057Z,7.90
2019-02-20T02:20:38.357Z,7.90
2019-02-20T02:23:39.533Z,7.90
2019-02-20T02:26:40.661Z,7.90
2019-02-20T02:29:41.822Z,7.80
2019-02-20T02:32:42.868Z,7.90
2019-02-20T02:35:43.845Z,7.90
2019-02-20T02:38:44.602Z,8.00
2019-02-20T02:41:45.249Z,7.60
2019-02-20T02:44:46.937Z,7.50
2019-02-20T02:47:48.233Z,7.70
2019-02-20T02:50:49.602Z,7.80
2019-02-20T02:53:50.517Z,7.90
2019-02-20T02:56:51.743Z,7.90
2019-02-20T02:59:53.652Z,7.80
2019-02-20T03:02:54.926Z,7.80
2019-02-20T03:05:56.084Z,7.80
2019-02-20T03:08:56.926Z,7.90
2019-02-20T03:11:58.385Z,7.90
2019-02-20T03:14:58.904Z,8.00
2019-02-20T03:18:00.390Z,8.00
2019-02-20T03:21:01.768Z,8.00
2019-02-20T03:24:02.588Z,8.00
2019-02-20T03:27:03.380Z,8.00
2019-02-20T03:30:04.349Z,8.00
2019-02-20T03:33:05.333Z,8.00
2019-02-20T03:36:06.326Z,7.90
2019-02-20T03:39:07.293Z,7.90
2019-02-20T03:42:08.858Z,8.00
2019-02-20T03:45:16.106Z,8.00
2019-02-20T03:48:17.059Z,8.00
2019-02-20T03:51:17.873Z,8.00
2019-02-20T03:54:18.908Z,8.00
2019-02-20T03:57:20.111Z,8.00
2019-02-20T04:00:20.795Z,7.90
2019-02-20T04:03:21.585Z,7.80
2019-02-20T04:06:22.842Z,7.80
2019-02-20T04:09:23.831Z,7.80
2019-02-20T04:12:24.528Z,7.80
2019-02-20T04:15:25.757Z,7.90
2019-02-20T04:18:26.442Z,7.90
2019-02-20T04:21:27.544Z,7.90
2019-02-20T04:24:28.816Z,7.90
2019-02-20T04:27:29.916Z,8.00
2019-02-20T04:30:30.426Z,8.00
2019-02-20T04:33:32.397Z,7.80
2019-02-20T04:36:33.673Z,7.60
2019-02-20T04:39:34.589Z,7.60
2019-02-20T04:42:35.600Z,7.80
2019-02-20T04:45:36.893Z,7.90
2019-02-20T04:48:37.713Z,7.90
2019-02-20T04:51:39.354Z,8.00
2019-02-20T04:54:41.270Z,8.00
2019-02-20T04:57:42.842Z,8.00
2019-02-20T05:00:44.036Z,7.90
2019-02-20T05:03:45.151Z,7.90
2019-02-20T05:06:45.765Z,7.90
2019-02-20T05:09:46.778Z,7.80
2019-02-20T05:12:48.303Z,7.90
2019-02-20T05:15:48.895Z,7.80
2019-02-20T05:18:49.950Z,7.80
2019-02-20T05:21:50.707Z,7.80
2019-02-20T05:24:51.529Z,7.80
2019-02-20T05:27:52.597Z,7.60
2019-02-20T05:30:53.653Z,7.60
2019-02-20T05:33:54.514Z,7.60
2019-02-20T05:39:38.480Z,7.70
2019-02-20T05:42:39.011Z,7.80
2019-02-20T05:45:39.841Z,7.70
2019-02-20T05:48:41.000Z,7.40
2019-02-20T05:51:41.899Z,7.60
2019-02-20T05:54:42.788Z,7.80
2019-02-20T05:57:43.482Z,7.90
2019-02-20T06:00:44.489Z,7.90
2019-02-20T06:03:46.181Z,7.80
2019-02-20T06:06:34.891Z,7.80
2019-02-20T06:09:42.987Z,7.90
2019-02-20T06:12:44.350Z,7.90
2019-02-20T06:15:45.704Z,7.60
2019-02-20T06:18:46.410Z,7.40
2019-02-20T06:21:47.725Z,7.60
2019-02-20T06:24:43.914Z,7.70
2019-02-20T06:27:46.696Z,7.80
2019-02-20T06:30:48.014Z,7.80
2019-02-20T06:33:48.980Z,7.80
2019-02-20T06:36:37.818Z,7.70
2019-02-20T06:39:38.457Z,7.80
2019-02-20T06:42:39.051Z,7.80
2019-02-20T06:45:39.803Z,7.70
2019-02-20T06:48:41.929Z,7.50
2019-02-20T06:51:43.225Z,7.50
2019-02-20T06:54:53.285Z,7.60
2019-02-20T06:57:47.193Z,7.80
2019-02-20T07:00:47.861Z,7.90
2019-02-20T07:03:48.916Z,8.00
2019-02-20T07:06:49.978Z,8.00
2019-02-20T07:09:51.160Z,8.00
2019-02-20T07:12:52.291Z,8.00
2019-02-20T07:16:20.181Z,7.90
2019-02-20T07:19:20.803Z,8.10
2019-02-20T07:22:21.663Z,8.20
2019-02-20T07:28:06.061Z,8.30
2019-02-20T07:31:07.174Z,8.30
2019-02-20T07:34:08.348Z,8.20
2019-02-20T07:37:08.970Z,8.20
2019-02-20T07:40:09.879Z,8.30
2019-02-20T07:43:10.773Z,8.40
2019-02-20T07:46:11.365Z,8.50
2019-02-20T07:49:12.077Z,8.60
2019-02-20T07:52:13.139Z,8.60
2019-02-20T07:55:13.974Z,8.50
2019-02-20T07:58:15.112Z,8.60
2019-02-20T08:01:16.109Z,8.60
2019-02-20T08:04:17.077Z,8.50
2019-02-20T08:07:17.715Z,8.80
2019-02-20T08:10:18.682Z,8.90
2019-02-20T08:13:19.703Z,9.00
2019-02-20T08:16:20.923Z,9.00
2019-02-20T08:19:25.522Z,9.00
2019-02-20T08:22:26.402Z,9.00
2019-02-20T08:25:27.229Z,9.10
2019-02-20T08:28:27.984Z,9.20
2019-02-20T08:31:28.872Z,9.10
2019-02-20T08:34:29.745Z,9.10
2019-02-20T08:37:30.816Z,9.00
2019-02-20T08:40:31.584Z,9.10
2019-02-20T08:43:32.736Z,8.80
2019-02-20T08:46:33.895Z,8.90
2019-02-20T08:49:35.106Z,9.30
2019-02-20T08:52:36.233Z,9.50
2019-02-20T08:55:37.345Z,9.70
2019-02-20T08:58:38.273Z,9.30
2019-02-20T09:01:39.689Z,9.40
2019-02-20T09:04:40.954Z,9.80
2019-02-20T09:07:42.446Z,10.10
2019-02-20T09:10:47.722Z,10.30
2019-02-20T09:13:48.946Z,10.40
2019-02-20T09:16:49.847Z,10.90
2019-02-20T09:19:51.233Z,11.00
2019-02-20T09:22:53.073Z,11.00
2019-02-20T09:25:54.278Z,11.60
2019-02-20T09:28:56.730Z,11.70
2019-02-20T09:31:57.902Z,12.10
2019-02-20T09:34:58.879Z,12.50
2019-02-20T09:37:59.776Z,12.30
2019-02-20T09:41:00.478Z,12.00
2019-02-20T09:44:01.730Z,12.50
2019-02-20T09:47:02.870Z,12.30
2019-02-20T09:50:03.582Z,12.80
2019-02-20T09:53:04.240Z,12.70
2019-02-20T09:56:05.743Z,12.60
2019-02-20T09:58:54.755Z,13.10
2019-02-20T10:02:02.877Z,12.60
2019-02-20T10:05:04.139Z,12.70
2019-02-20T10:08:05.025Z,12.70
2019-02-20T10:11:06.354Z,13.20
2019-02-20T10:14:07.277Z,12.80
2019-02-20T10:16:56.359Z,13.20
2019-02-20T10:19:57.854Z,13.00
2019-02-20T10:22:58.694Z,13.40
2019-02-20T10:26:01.133Z,13.00
2019-02-20T10:29:02.361Z,12.80
2019-02-20T10:32:03.208Z,13.10
2019-02-20T10:35:04.029Z,12.60
2019-02-20T10:38:05.246Z,13.30
2019-02-20T10:41:06.183Z,13.60
2019-02-20T10:44:07.036Z,13.40
2019-02-20T10:47:08.410Z,13.50
2019-02-20T10:50:09.366Z,13.60
2019-02-20T10:53:10.378Z,12.90
2019-02-20T10:56:11.444Z,12.70
2019-02-20T10:59:16.669Z,13.40
2019-02-20T11:02:17.938Z,14.70
2019-02-20T11:05:06.890Z,17.50
2019-02-20T11:08:15.305Z,18.40
2019-02-20T11:11:17.050Z,17.20
2019-02-20T11:14:18.369Z,15.90
2019-02-20T11:17:19.734Z,15.10
2019-02-20T11:20:21.437Z,14.60
2019-02-20T11:23:22.716Z,14.90
2019-02-20T11:26:23.869Z,15.00
2019-02-20T11:29:25.203Z,15.40
2019-02-20T11:32:26.677Z,15.00
2019-02-20T11:35:28.424Z,14.10
2019-02-20T11:38:30.937Z,13.50
2019-02-20T11:41:32.424Z,13.70
2019-02-20T11:44:34.225Z,12.70
2019-02-20T11:47:35.771Z,12.40
2019-02-20T11:50:24.886Z,13.00
2019-02-20T11:53:26.547Z,13.10
2019-02-20T11:56:27.835Z,13.10
2019-02-20T11:59:28.881Z,13.10
2019-02-20T12:02:37.207Z,13.60
2019-02-20T12:05:32.379Z,13.60
2019-02-20T12:08:34.115Z,13.50
2019-02-20T12:11:35.123Z,13.50
2019-02-20T12:14:36.518Z,13.10
2019-02-20T12:17:38.367Z,13.00
2019-02-20T12:20:40.077Z,13.70
2019-02-20T12:23:41.441Z,15.20
2019-02-20T12:26:42.955Z,15.40
2019-02-20T12:29:44.482Z,15.90
2019-02-20T12:32:46.218Z,16.50
2019-02-20T12:35:47.838Z,17.80
2019-02-20T12:38:49.746Z,17.60
2019-02-20T12:41:51.380Z,16.60
2019-02-20T12:44:53.124Z,16.30
2019-02-20T12:47:54.973Z,16.20
2019-02-20T12:50:56.729Z,17.20
2019-02-20T12:54:01.305Z,18.40
2019-02-20T12:57:02.198Z,19.50
2019-02-20T13:00:04.022Z,18.70
2019-02-20T13:03:04.957Z,18.10
2019-02-20T13:06:06.418Z,18.40
2019-02-20T13:09:09.589Z,18.60
2019-02-20T13:12:11.367Z,19.30
2019-02-20T13:15:13.125Z,21.10
2019-02-20T13:18:14.820Z,22.10
2019-02-20T13:21:16.675Z,21.70
2019-02-20T13:24:17.675Z,22.80
2019-02-20T13:27:22.679Z,22.30
2019-02-20T13:30:22.053Z,19.40
2019-02-20T13:33:23.775Z,18.30
2019-02-20T13:36:13.211Z,18.30
2019-02-20T13:39:21.650Z,18.10
2019-02-20T13:42:23.326Z,18.20
2019-02-20T13:45:24.852Z,17.90
2019-02-20T13:48:26.145Z,17.80
2019-02-20T13:51:15.313Z,18.20
2019-02-20T13:54:23.805Z,18.90
2019-02-20T13:57:24.713Z,18.50
2019-02-20T14:00:25.676Z,18.50
2019-02-20T14:03:27.274Z,18.60
2019-02-20T14:06:16.444Z,18.70
2019-02-20T14:09:24.928Z,19.10
2019-02-20T14:12:26.023Z,17.50
2019-02-20T14:15:27.856Z,17.90
2019-02-20T14:21:41.757Z,16.70
2019-02-20T14:24:43.105Z,17.50
2019-02-20T14:27:44.666Z,18.50
2019-02-20T14:30:45.789Z,18.80
2019-02-20T14:33:47.502Z,18.90
2019-02-20T14:36:49.285Z,19.80
2019-02-20T14:39:50.898Z,19.00
2019-02-20T14:42:53.316Z,18.40
2019-02-20T14:45:54.914Z,19.60
2019-02-20T14:48:56.697Z,20.40
2019-02-20T14:51:57.946Z,19.60
2019-02-20T14:54:59.536Z,18.30
2019-02-20T14:58:00.890Z,17.90
2019-02-20T15:01:02.529Z,17.60
2019-02-20T15:04:04.313Z,18.00
2019-02-20T15:09:48.935Z,17.00
2019-02-20T15:12:50.526Z,16.30
2019-02-20T15:15:52.003Z,16.30
2019-02-20T15:18:53.421Z,16.10
2019-02-20T15:21:54.987Z,16.50
2019-02-20T15:24:56.385Z,16.70
2019-02-20T15:27:58.101Z,15.70
2019-02-20T15:30:59.850Z,15.60
2019-02-20T15:34:01.640Z,15.30
2019-02-20T15:37:06.375Z,15.00
2019-02-20T15:40:08.068Z,14.40
2019-02-20T15:43:09.712Z,14.40
2019-02-20T15:46:11.274Z,14.60
2019-02-20T15:49:12.517Z,14.90
2019-02-20T15:52:13.914Z,15.00
2019-02-20T15:55:15.642Z,14.70
2019-02-20T15:58:17.123Z,14.80
2019-02-20T16:01:18.346Z,14.90
2019-02-20T16:04:19.485Z,14.80
2019-02-20T16:07:20.914Z,14.70
2019-02-20T16:10:23.236Z,14.30
2019-02-20T16:13:24.493Z,14.30
2019-02-20T16:16:25.883Z,13.80
2019-02-20T16:19:26.533Z,13.60
2019-02-20T16:22:27.154Z,13.10
2019-02-20T16:25:27.633Z,12.50
2019-02-20T16:28:33.853Z,12.40
2019-02-20T16:31:31.682Z,12.20
2019-02-20T16:34:32.532Z,12.10
2019-02-20T16:37:33.009Z,12.00
2019-02-20T16:40:33.453Z,11.90
2019-02-20T16:43:34.056Z,11.90
2019-02-20T16:46:34.526Z,11.80
2019-02-20T16:49:35.928Z,11.80
2019-02-20T16:52:36.587Z,11.50
2019-02-20T16:55:37.833Z,11.20
2019-02-20T16:58:38.797Z,11.20
2019-02-20T17:01:39.294Z,11.00
2019-02-20T17:04:28.066Z,11.00
2019-02-20T17:07:36.024Z,11.00
2019-02-20T17:10:36.401Z,11.00
2019-02-20T17:13:36.970Z,10.90
2019-02-20T17:16:37.373Z,10.70
2019-02-20T17:19:38.029Z,10.50
2019-02-20T17:22:38.514Z,10.40
2019-02-20T17:25:39.117Z,10.40
2019-02-20T17:28:39.837Z,10.20
2019-02-20T17:31:41.036Z,10.10
2019-02-20T17:34:41.509Z,9.70
2019-02-20T17:37:30.163Z,9.60
2019-02-20T17:40:38.213Z,9.50
2019-02-20T17:43:40.325Z,9.50
2019-02-20T17:46:41.037Z,9.40
2019-02-20T17:49:43.505Z,9.40
2019-02-20T17:52:44.466Z,9.30
2019-02-20T17:55:33.028Z,9.20
2019-02-20T17:58:42.757Z,9.10
2019-02-20T18:01:45.473Z,8.90
2019-02-20T18:04:46.366Z,8.60
2019-02-20T18:07:51.481Z,8.10
2019-02-20T18:10:49.613Z,8.00
2019-02-20T18:13:50.237Z,8.40
2019-02-20T18:16:50.661Z,8.50
2019-02-20T18:19:51.790Z,8.50
2019-02-20T18:22:52.197Z,8.50
2019-02-20T18:25:52.760Z,8.50
2019-02-20T18:28:54.021Z,8.50
2019-02-20T18:31:54.342Z,8.50
2019-02-20T18:34:55.480Z,8.50
2019-02-20T18:37:59.781Z,8.30
2019-02-20T18:41:00.788Z,8.40
2019-02-20T18:44:01.626Z,8.30
2019-02-20T18:47:01.993Z,8.30
2019-02-20T18:50:03.048Z,8.20
2019-02-20T18:53:03.368Z,8.10
2019-02-20T18:56:03.941Z,8.10
2019-02-20T18:59:04.419Z,8.10
2019-02-20T19:02:05.173Z,8.00
2019-02-20T19:05:05.711Z,8.00
2019-02-20T19:08:06.902Z,8.10
2019-02-20T19:11:07.549Z,8.00
2019-02-20T19:14:09.178Z,8.00
2019-02-20T19:17:09.861Z,7.90
2019-02-20T19:20:10.275Z,7.70
2019-02-20T19:23:10.801Z,7.70
2019-02-20T19:26:11.599Z,7.60
2019-02-20T19:29:12.053Z,7.50
2019-02-20T19:32:12.360Z,7.40
2019-02-20T19:35:13.736Z,7.40
2019-02-20T19:38:14.329Z,7.40
2019-02-20T19:41:41.685Z,7.40
2019-02-20T19:44:42.367Z,7.20
2019-02-20T19:47:43.709Z,7.20
2019-02-20T19:50:44.038Z,7.10
2019-02-20T19:53:44.750Z,7.10
2019-02-20T19:56:45.200Z,7.10
2019-02-20T19:59:45.743Z,7.00
2019-02-20T20:02:46.174Z,6.90
2019-02-20T20:05:46.601Z,7.00
2019-02-20T20:08:46.868Z,6.90
2019-02-20T20:11:47.392Z,6.90
2019-02-20T20:14:47.853Z,6.90
2019-02-20T20:17:48.315Z,6.80
2019-02-20T20:20:48.652Z,6.60
2019-02-20T20:23:49.462Z,6.70
2019-02-20T20:26:50.254Z,6.60
2019-02-20T20:29:51.836Z,6.60
2019-02-20T20:32:56.050Z,6.90
2019-02-20T20:35:55.613Z,7.10
2019-02-20T20:38:56.519Z,7.20
2019-02-20T20:41:58.617Z,7.20
2019-02-20T20:44:59.982Z,7.20
2019-02-20T20:48:11.208Z,7.20
2019-02-20T20:51:04.186Z,7.10
2019-02-20T20:54:04.883Z,7.10
2019-02-20T20:57:06.179Z,7.00
2019-02-20T21:00:07.089Z,7.00
2019-02-20T21:03:07.861Z,7.10
2019-02-20T21:06:08.998Z,7.00
2019-02-20T21:09:10.014Z,7.00
2019-02-20T21:12:11.173Z,7.00
2019-02-20T21:15:12.125Z,7.10
2019-02-20T21:18:13.343Z,7.20
2019-02-20T21:21:14.400Z,7.10
2019-02-20T21:24:15.141Z,7.10
2019-02-20T21:27:15.955Z,7.10
2019-02-20T21:30:16.759Z,7.10
2019-02-20T21:33:17.761Z,7.10
2019-02-20T21:36:18.751Z,7.20
2019-02-20T21:39:21.934Z,7.20
2019-02-20T21:42:22.795Z,7.20
2019-02-20T21:45:23.584Z,7.20
2019-02-20T21:48:24.598Z,7.20
2019-02-20T21:51:25.746Z,7.20
2019-02-20T21:54:26.946Z,7.10
2019-02-20T21:57:27.879Z,7.00
2019-02-20T22:00:28.539Z,6.90
2019-02-20T22:03:29.989Z,6.90
2019-02-20T22:06:31.065Z,6.90
2019-02-20T22:09:32.241Z,6.90
2019-02-20T22:12:32.833Z,7.00
2019-02-20T22:15:33.590Z,6.90
2019-02-20T22:18:34.817Z,6.90
2019-02-20T22:21:35.950Z,6.90
2019-02-20T22:24:36.721Z,6.80
2019-02-20T22:27:37.403Z,6.80
2019-02-20T22:30:38.131Z,6.80
2019-02-20T22:33:39.782Z,6.90
2019-02-20T22:36:41.061Z,6.90
2019-02-20T22:39:42.219Z,6.90
2019-02-20T22:42:43.359Z,6.90
2019-02-20T22:45:44.910Z,6.90
2019-02-20T22:48:46.058Z,6.90
2019-02-20T22:51:47.011Z,6.90
2019-02-20T22:54:47.680Z,6.80
2019-02-20T22:57:48.610Z,6.70
2019-02-20T23:00:50.839Z,6.60
2019-02-20T23:03:51.932Z,6.50
2019-02-20T23:06:52.858Z,6.50
2019-02-20T23:09:53.687Z,6.40
2019-02-20T23:12:54.366Z,6.40
2019-02-20T23:15:55.881Z,6.30
2019-02-20T23:18:56.793Z,6.20
2019-02-20T23:21:57.425Z,6.20
2019-02-20T23:24:58.277Z,6.10
2019-02-20T23:27:59.187Z,6.00
2019-02-20T23:31:00.230Z,6.00
2019-02-20T23:34:00.985Z,5.90
2019-02-20T23:37:01.880Z,5.80
2019-02-20T23:40:04.741Z,5.60
2019-02-20T23:43:05.895Z,5.60
2019-02-20T23:46:06.869Z,5.50
2019-02-20T23:49:07.815Z,4.90
2019-02-20T23:52:08.202Z,4.60
2019-02-20T23:55:08.616Z,4.40
2019-02-20T23:58:09.409Z,4.20
